createdAt,value
2023-02-03T00:00:44.702Z,1.04
2023-02-03T00:01:44.875Z,1.04
2023-02-03T00:02:44.944Z,1.04
2023-02-03T00:03:45.061Z,1.04
2023-02-03T00:04:45.216Z,1.04
2023-02-03T00:05:45.306Z,1.04
2023-02-03T00:06:45.454Z,1.04
2023-02-03T00:07:45.562Z,1.04
2023-02-03T00:08:45.711Z,1.04
2023-02-03T00:09:45.876Z,1.04
2023-02-03T00:10:46.008Z,1.04
2023-02-03T00:11:46.169Z,1.04
2023-02-03T00:12:46.267Z,1.04
2023-02-03T00:13:46.366Z,1.04
2023-02-03T00:14:46.466Z,1.04
2023-02-03T00:15:46.624Z,1.04
2023-02-03T00:16:46.800Z,1.04
2023-02-03T00:17:46.939Z,1.04
2023-02-03T00:18:47.028Z,1.04
2023-02-03T00:19:47.135Z,1.04
2023-02-03T00:20:47.285Z,1.04
2023-02-03T00:21:47.381Z,1.04
2023-02-03T00:22:47.494Z,1.04
2023-02-03T00:23:47.637Z,1.04
2023-02-03T00:24:47.730Z,1.04
2023-02-03T00:25:47.836Z,1.04
2023-02-03T00:26:47.945Z,1.04
2023-02-03T00:27:48.134Z,1.04
2023-02-03T00:28:48.191Z,1.04
2023-02-03T00:29:48.294Z,1.04
2023-02-03T00:30:48.404Z,1.04
2023-02-03T00:31:48.679Z,1.04
2023-02-03T00:32:48.652Z,1.04
2023-02-03T00:33:48.750Z,1.04
2023-02-03T00:34:48.851Z,1.04
2023-02-03T00:35:48.949Z,1.04
2023-02-03T00:36:49.057Z,1.04
2023-02-03T00:37:49.229Z,1.04
2023-02-03T00:38:49.352Z,1.04
2023-02-03T00:39:49.505Z,1.04
2023-02-03T00:40:49.655Z,1.04
2023-02-03T00:41:49.767Z,1.04
2023-02-03T00:42:49.876Z,1.04
2023-02-03T00:43:49.962Z,1.04
2023-02-03T00:44:50.059Z,1.04
2023-02-03T00:45:50.187Z,1.04
2023-02-03T00:46:50.265Z,1.04
2023-02-03T00:47:50.417Z,1.04
2023-02-03T00:48:50.528Z,1.04
2023-02-03T00:49:50.620Z,1.04
2023-02-03T00:50:50.733Z,1.04
2023-02-03T00:51:50.822Z,1.04
2023-02-03T00:52:50.937Z,1.04
2023-02-03T00:53:51.074Z,1.04
2023-02-03T00:54:51.225Z,1.04
2023-02-03T00:55:51.331Z,1.04
2023-02-03T00:56:51.481Z,1.04
2023-02-03T00:57:51.582Z,1.04
2023-02-03T00:58:51.758Z,1.04
2023-02-03T00:59:51.855Z,1.04
2023-02-03T01:00:52.003Z,1.04
2023-02-03T01:01:52.163Z,1.04
2023-02-03T01:02:52.289Z,1.04
2023-02-03T01:03:52.392Z,1.04
2023-02-03T01:04:52.567Z,1.04
2023-02-03T01:05:52.688Z,1.04
2023-02-03T01:06:52.795Z,1.04
2023-02-03T01:07:52.912Z,1.04
2023-02-03T01:08:53.062Z,1.04
2023-02-03T01:09:53.198Z,1.04
2023-02-03T01:10:53.301Z,1.04
2023-02-03T01:11:53.415Z,1.04
2023-02-03T01:12:53.558Z,1.04
2023-02-03T01:13:53.706Z,1.04
2023-02-03T01:14:53.848Z,1.04
2023-02-03T01:15:54.013Z,1.04
2023-02-03T01:16:54.258Z,1.04
2023-02-03T01:17:54.261Z,1.04
2023-02-03T01:18:54.370Z,1.04
2023-02-03T01:19:54.517Z,1.04
2023-02-03T01:20:54.665Z,1.04
2023-02-03T01:21:54.814Z,1.04
2023-02-03T01:22:54.964Z,1.04
2023-02-03T01:23:55.073Z,1.04
2023-02-03T01:24:55.221Z,1.04
2023-02-03T01:25:55.313Z,1.04
2023-02-03T01:26:55.424Z,1.04
2023-02-03T01:27:55.595Z,1.04
2023-02-03T01:28:55.669Z,1.04
2023-02-03T01:29:55.773Z,1.04
2023-02-03T01:30:55.982Z,1.04
2023-02-03T01:31:56.147Z,1.04
2023-02-03T01:32:56.100Z,1.04
2023-02-03T01:33:56.195Z,1.04
2023-02-03T01:34:56.297Z,1.04
2023-02-03T01:35:56.434Z,1.04
2023-02-03T01:36:56.587Z,1.04
2023-02-03T01:37:56.693Z,1.04
2023-02-03T01:38:56.840Z,1.04
2023-02-03T01:39:56.987Z,1.04
2023-02-03T01:40:57.095Z,1.04
2023-02-03T01:41:57.244Z,1.04
2023-02-03T01:42:57.389Z,1.04
2023-02-03T01:43:57.542Z,1.04
2023-02-03T01:44:57.702Z,1.04
2023-02-03T01:45:57.848Z,1.04
2023-02-03T01:46:57.952Z,1.04
2023-02-03T01:47:58.115Z,1.04
2023-02-03T01:48:58.208Z,1.04
2023-02-03T01:49:58.367Z,1.04
2023-02-03T01:50:58.510Z,1.04
2023-02-03T01:51:58.674Z,1.04
2023-02-03T01:52:58.775Z,1.04
2023-02-03T01:53:58.867Z,1.04
2023-02-03T01:54:59.023Z,1.04
2023-02-03T01:55:59.134Z,1.04
2023-02-03T01:56:59.241Z,1.04
2023-02-03T01:57:59.376Z,1.04
2023-02-03T01:58:59.517Z,1.04
2023-02-03T01:59:59.621Z,1.04
2023-02-03T02:00:59.754Z,1.04
2023-02-03T02:01:59.831Z,1.04
2023-02-03T02:02:59.928Z,1.04
2023-02-03T02:04:00.048Z,1.04
2023-02-03T02:05:00.145Z,1.04
2023-02-03T02:06:00.228Z,1.04
2023-02-03T02:07:00.392Z,1.04
2023-02-03T02:08:00.493Z,1.04
2023-02-03T02:09:00.637Z,1.04
2023-02-03T02:10:00.729Z,1.04
2023-02-03T02:11:00.835Z,1.04
2023-02-03T02:12:00.997Z,1.04
2023-02-03T02:13:01.135Z,1.04
2023-02-03T02:14:01.248Z,1.04
2023-02-03T02:15:01.341Z,1.04
2023-02-03T02:16:01.607Z,1.04
2023-02-03T02:17:01.649Z,1.04
2023-02-03T02:18:01.812Z,1.04
2023-02-03T02:19:01.917Z,1.04
2023-02-03T02:20:02.004Z,1.04
2023-02-03T02:21:02.159Z,1.04
2023-02-03T02:22:02.248Z,1.04
2023-02-03T02:23:02.407Z,1.04
2023-02-03T02:24:02.552Z,1.04
2023-02-03T02:25:02.663Z,1.04
2023-02-03T02:26:02.749Z,1.04
2023-02-03T02:27:02.857Z,1.04
2023-02-03T02:28:03.013Z,1.04
2023-02-03T02:29:03.061Z,1.04
2023-02-03T02:30:03.160Z,1.04
2023-02-03T02:31:03.475Z,1.04
2023-02-03T02:32:03.440Z,1.04
2023-02-03T02:33:03.473Z,1.04
2023-02-03T02:34:03.735Z,1.04
2023-02-03T02:35:03.715Z,1.04
2023-02-03T02:36:03.828Z,1.04
2023-02-03T02:37:03.973Z,1.04
2023-02-03T02:38:04.125Z,1.04
2023-02-03T02:39:04.277Z,1.04
2023-02-03T02:40:04.428Z,1.04
2023-02-03T02:41:04.588Z,1.04
2023-02-03T02:42:04.728Z,1.04
2023-02-03T02:43:04.828Z,1.04
2023-02-03T02:44:04.990Z,1.04
2023-02-03T02:45:05.082Z,1.04
2023-02-03T02:46:05.217Z,1.04
2023-02-03T02:47:05.306Z,1.04
2023-02-03T02:48:05.384Z,1.04
2023-02-03T02:49:05.491Z,1.04
2023-02-03T02:50:05.612Z,1.04
2023-02-03T02:51:05.734Z,1.04
2023-02-03T02:52:05.836Z,1.04
2023-02-03T02:53:05.945Z,1.04
2023-02-03T02:54:06.067Z,1.04
2023-02-03T02:55:06.140Z,1.04
2023-02-03T02:56:06.255Z,1.04
2023-02-03T02:57:06.403Z,1.04
2023-02-03T02:58:06.559Z,1.04
2023-02-03T02:59:06.657Z,1.04
2023-02-03T03:00:06.801Z,1.04
2023-02-03T03:01:07.013Z,1.04
2023-02-03T03:02:07.076Z,1.04
2023-02-03T03:03:07.163Z,1.04
2023-02-03T03:04:07.274Z,1.04
2023-02-03T03:05:07.455Z,1.04
2023-02-03T03:06:07.513Z,1.04
2023-02-03T03:07:07.625Z,1.04
2023-02-03T03:08:07.712Z,1.04
2023-02-03T03:09:07.821Z,1.04
2023-02-03T03:10:07.981Z,1.04
2023-02-03T03:11:08.083Z,1.04
2023-02-03T03:12:08.235Z,1.04
2023-02-03T03:13:08.328Z,1.04
2023-02-03T03:14:08.477Z,1.04
2023-02-03T03:15:08.577Z,1.04
2023-02-03T03:16:08.813Z,1.04
2023-02-03T03:17:08.844Z,1.04
2023-02-03T03:18:08.931Z,1.04
2023-02-03T03:19:09.078Z,1.04
2023-02-03T03:20:09.192Z,1.04
2023-02-03T03:21:09.290Z,1.04
2023-02-03T03:22:09.399Z,1.04
2023-02-03T03:23:09.484Z,1.04
2023-02-03T03:24:09.595Z,1.04
2023-02-03T03:25:09.688Z,1.04
2023-02-03T03:26:09.800Z,1.04
2023-02-03T03:27:09.940Z,1.04
2023-02-03T03:28:10.189Z,1.04
2023-02-03T03:29:10.202Z,1.04
2023-02-03T03:30:10.350Z,1.04
2023-02-03T03:31:10.511Z,1.04
2023-02-03T03:32:10.596Z,1.04
2023-02-03T03:33:10.701Z,1.04
2023-02-03T03:34:10.858Z,1.04
2023-02-03T03:35:10.961Z,1.04
2023-02-03T03:36:11.061Z,1.04
2023-02-03T03:37:11.203Z,1.04
2023-02-03T03:38:11.306Z,1.04
2023-02-03T03:39:11.408Z,1.04
2023-02-03T03:40:11.517Z,1.04
2023-02-03T03:41:11.669Z,1.04
2023-02-03T03:42:11.812Z,1.04
2023-02-03T03:43:11.913Z,1.04
2023-02-03T03:44:12.014Z,1.04
2023-02-03T03:45:12.179Z,1.04
2023-02-03T03:46:12.336Z,1.04
2023-02-03T03:47:12.431Z,1.04
2023-02-03T03:48:12.568Z,1.04
2023-02-03T03:49:12.718Z,1.04
2023-02-03T03:50:12.831Z,1.04
2023-02-03T03:51:12.929Z,1.04
2023-02-03T03:52:13.084Z,1.04
2023-02-03T03:53:13.183Z,1.04
2023-02-03T03:54:13.322Z,1.04
2023-02-03T03:55:13.430Z,1.04
2023-02-03T03:56:13.532Z,1.04
2023-02-03T03:57:13.693Z,1.04
2023-02-03T03:58:13.790Z,1.04
2023-02-03T03:59:13.957Z,1.04
2023-02-03T04:00:14.087Z,1.04
2023-02-03T04:01:14.299Z,1.04
2023-02-03T04:02:14.452Z,1.04
2023-02-03T04:03:14.496Z,1.04
2023-02-03T04:04:14.599Z,1.04
2023-02-03T04:05:14.757Z,1.04
2023-02-03T04:06:14.863Z,1.04
2023-02-03T04:07:14.945Z,1.04
2023-02-03T04:08:15.089Z,1.04
2023-02-03T04:09:15.217Z,1.04
2023-02-03T04:10:15.332Z,1.04
2023-02-03T04:11:15.480Z,1.04
2023-02-03T04:12:15.570Z,1.04
2023-02-03T04:13:15.651Z,1.04
2023-02-03T04:14:15.865Z,1.04
2023-02-03T04:15:15.960Z,1.04
2023-02-03T04:16:16.133Z,1.04
2023-02-03T04:17:16.202Z,1.04
2023-02-03T04:18:16.378Z,1.04
2023-02-03T04:19:16.521Z,1.04
2023-02-03T04:20:16.671Z,1.04
2023-02-03T04:21:16.774Z,1.04
2023-02-03T04:22:16.863Z,1.04
2023-02-03T04:23:16.979Z,1.04
2023-02-03T04:24:17.127Z,1.04
2023-02-03T04:25:17.227Z,1.04
2023-02-03T04:26:17.327Z,1.04
2023-02-03T04:27:17.424Z,1.04
2023-02-03T04:28:17.578Z,1.04
2023-02-03T04:29:17.680Z,1.04
2023-02-03T04:30:17.831Z,1.04
2023-02-03T04:31:18.123Z,1.04
2023-02-03T04:32:18.084Z,1.04
2023-02-03T04:33:18.234Z,1.04
2023-02-03T04:34:18.335Z,1.04
2023-02-03T04:35:18.439Z,1.04
2023-02-03T04:36:18.554Z,1.04
2023-02-03T04:37:18.703Z,1.04
2023-02-03T04:38:18.797Z,1.04
2023-02-03T04:39:18.950Z,1.04
2023-02-03T04:40:19.056Z,1.04
2023-02-03T04:41:19.210Z,1.04
2023-02-03T04:42:19.300Z,1.04
2023-02-03T04:43:19.455Z,1.04
2023-02-03T04:44:19.596Z,1.04
2023-02-03T04:45:19.703Z,1.04
2023-02-03T04:46:19.800Z,1.04
2023-02-03T04:47:19.911Z,1.04
2023-02-03T04:48:20.004Z,1.04
2023-02-03T04:49:20.136Z,1.04
2023-02-03T04:50:20.217Z,1.04
2023-02-03T04:51:20.363Z,1.04
2023-02-03T04:52:20.489Z,1.04
2023-02-03T04:53:20.558Z,1.04
2023-02-03T04:54:20.666Z,1.04
2023-02-03T04:55:20.816Z,1.04
2023-02-03T04:56:20.920Z,1.04
2023-02-03T04:57:21.018Z,1.04
2023-02-03T04:58:21.171Z,1.04
2023-02-03T04:59:21.276Z,1.04
2023-02-03T05:00:21.376Z,1.04
2023-02-03T05:01:21.588Z,1.04
2023-02-03T05:02:21.629Z,1.04
2023-02-03T05:03:23.519Z,1.04
2023-02-03T05:04:21.877Z,1.04
2023-02-03T05:05:22.053Z,1.04
2023-02-03T05:06:22.136Z,1.04
2023-02-03T05:07:22.291Z,1.04
2023-02-03T05:08:22.438Z,1.04
2023-02-03T05:09:22.533Z,1.04
2023-02-03T05:10:22.643Z,1.04
2023-02-03T05:11:22.802Z,1.04
2023-02-03T05:12:22.894Z,1.04
2023-02-03T05:13:23.015Z,1.04
2023-02-03T05:14:23.119Z,1.04
2023-02-03T05:15:23.255Z,1.04
2023-02-03T05:16:23.431Z,1.04
2023-02-03T05:17:23.500Z,1.04
2023-02-03T05:18:23.649Z,1.04
2023-02-03T05:19:23.757Z,1.04
2023-02-03T05:20:23.862Z,1.04
2023-02-03T05:21:23.955Z,1.04
2023-02-03T05:22:24.082Z,1.04
2023-02-03T05:23:24.173Z,1.04
2023-02-03T05:24:24.312Z,1.04
2023-02-03T05:25:24.521Z,1.04
2023-02-03T05:26:24.606Z,1.04
2023-02-03T05:27:24.776Z,1.04
2023-02-03T05:28:24.859Z,1.04
2023-02-03T05:29:25.014Z,1.04
2023-02-03T05:30:25.204Z,1.04
2023-02-03T05:31:25.332Z,1.04
2023-02-03T05:32:25.421Z,1.04
2023-02-03T05:33:25.522Z,1.04
2023-02-03T05:34:25.612Z,1.04
2023-02-03T05:35:25.714Z,1.04
2023-02-03T05:36:25.861Z,1.04
2023-02-03T05:37:26.020Z,1.04
2023-02-03T05:38:26.123Z,1.04
2023-02-03T05:39:26.221Z,1.04
2023-02-03T05:40:26.829Z,1.04
2023-02-03T05:41:26.544Z,1.04
2023-02-03T05:42:26.680Z,1.04
2023-02-03T05:43:26.782Z,1.04
2023-02-03T05:44:26.959Z,1.04
2023-02-03T05:45:27.131Z,1.04
2023-02-03T05:46:27.192Z,1.04
2023-02-03T05:47:27.301Z,1.04
2023-02-03T05:48:27.438Z,1.04
2023-02-03T05:49:27.562Z,1.04
2023-02-03T05:50:28.002Z,1.04
2023-02-03T05:51:27.813Z,1.04
2023-02-03T05:52:27.914Z,1.04
2023-02-03T05:53:28.016Z,1.04
2023-02-03T05:54:28.183Z,1.04
2023-02-03T05:55:28.313Z,1.04
2023-02-03T05:56:28.475Z,1.04
2023-02-03T05:57:29.779Z,1.04
2023-02-03T05:58:28.670Z,1.04
2023-02-03T05:59:28.763Z,1.04
2023-02-03T06:00:29.243Z,1.04
2023-02-03T06:01:29.015Z,1.04
2023-02-03T06:02:29.112Z,1.04
2023-02-03T06:03:29.261Z,1.04
2023-02-03T06:04:29.403Z,1.04
2023-02-03T06:05:29.523Z,1.04
2023-02-03T06:06:29.616Z,1.04
2023-02-03T06:07:29.715Z,1.04
2023-02-03T06:08:29.818Z,1.04
2023-02-03T06:09:29.926Z,1.04
2023-02-03T06:10:30.216Z,1.04
2023-02-03T06:11:30.142Z,1.04
2023-02-03T06:12:30.281Z,1.04
2023-02-03T06:13:30.400Z,2
2023-02-03T06:14:30.540Z,2
2023-02-03T06:15:30.690Z,2
2023-02-03T06:16:30.909Z,2
2023-02-03T06:17:30.961Z,2
2023-02-03T06:18:31.039Z,3.04
2023-02-03T06:19:31.195Z,3.04
2023-02-03T06:20:31.305Z,3.04
2023-02-03T06:21:31.440Z,3.04
2023-02-03T06:22:31.539Z,4
2023-02-03T06:23:31.691Z,5.04
2023-02-03T06:24:31.841Z,6
2023-02-03T06:25:31.948Z,6
2023-02-03T06:26:32.102Z,7.04
2023-02-03T06:27:32.216Z,8
2023-02-03T06:28:32.353Z,9.04
2023-02-03T06:29:32.452Z,11.04
2023-02-03T06:30:32.565Z,12
2023-02-03T06:31:32.774Z,14
2023-02-03T06:32:32.763Z,17.04
2023-02-03T06:33:32.901Z,19.04
2023-02-03T06:34:33.043Z,18
2023-02-03T06:35:33.162Z,18
2023-02-03T06:36:33.263Z,23.04
2023-02-03T06:37:33.388Z,28
2023-02-03T06:38:33.529Z,28
2023-02-03T06:39:33.637Z,32
2023-02-03T06:40:33.773Z,36
2023-02-03T06:41:33.917Z,45.04
2023-02-03T06:42:34.029Z,49.04
2023-02-03T06:43:34.166Z,58
2023-02-03T06:44:34.317Z,66
2023-02-03T06:45:34.426Z,73.04
2023-02-03T06:46:34.558Z,78
2023-02-03T06:47:34.632Z,79.04
2023-02-03T06:48:34.746Z,77.04
2023-02-03T06:49:34.886Z,78
2023-02-03T06:50:35.029Z,81.04
2023-02-03T06:51:35.142Z,89.04
2023-02-03T06:52:35.288Z,99.04
2023-02-03T06:53:35.381Z,108
2023-02-03T06:54:35.483Z,101.04
2023-02-03T06:55:35.586Z,120
2023-02-03T06:56:35.693Z,113.04
2023-02-03T06:57:35.795Z,117.04
2023-02-03T06:58:35.951Z,118
2023-02-03T06:59:36.057Z,142
2023-02-03T07:00:36.152Z,164
2023-02-03T07:01:36.388Z,181.12
2023-02-03T07:02:36.464Z,197.12
2023-02-03T07:03:36.487Z,203.04
2023-02-03T07:04:36.639Z,199.04
2023-02-03T07:05:36.747Z,193.12
2023-02-03T07:06:36.911Z,234.08
2023-02-03T07:07:37.006Z,240
2023-02-03T07:08:37.122Z,239.04
2023-02-03T07:09:37.204Z,249.12
2023-02-03T07:10:37.315Z,261.12
2023-02-03T07:11:37.464Z,273.12
2023-02-03T07:12:37.622Z,268
2023-02-03T07:13:37.713Z,306.08
2023-02-03T07:14:37.866Z,305.12
2023-02-03T07:15:38.016Z,295.04
2023-02-03T07:16:38.080Z,288
2023-02-03T07:17:38.222Z,280
2023-02-03T07:18:47.572Z,308
2023-02-03T07:19:38.474Z,367.04
2023-02-03T07:20:38.606Z,354.24
2023-02-03T07:21:38.686Z,380.16
2023-02-03T07:22:38.849Z,405.12
2023-02-03T07:23:38.931Z,459.2
2023-02-03T07:24:39.027Z,471.04
2023-02-03T07:25:39.177Z,493.12
2023-02-03T07:26:39.281Z,532.16
2023-02-03T07:27:39.461Z,546.24
2023-02-03T07:28:39.531Z,525.12
2023-02-03T07:29:39.630Z,519.04
2023-02-03T07:30:39.786Z,519.04
2023-02-03T07:31:40.030Z,521.28
2023-02-03T07:32:40.039Z,534.08
2023-02-03T07:33:40.202Z,576
2023-02-03T07:34:40.357Z,589.12
2023-02-03T07:35:40.447Z,635.2
2023-02-03T07:36:40.554Z,583.04
2023-02-03T07:37:40.645Z,524.16
2023-02-03T07:38:40.751Z,534.08
2023-02-03T07:39:40.850Z,558.08
2023-02-03T07:40:41.000Z,591.04
2023-02-03T07:41:41.151Z,607.04
2023-02-03T07:42:41.308Z,598.08
2023-02-03T07:43:41.419Z,715.52
2023-02-03T07:44:41.559Z,753.28
2023-02-03T07:45:41.654Z,704
2023-02-03T07:46:41.879Z,659.2
2023-02-03T07:47:41.913Z,706.56
2023-02-03T07:48:42.015Z,754.56
2023-02-03T07:49:42.167Z,751.36
2023-02-03T07:50:42.326Z,826.24
2023-02-03T07:51:42.466Z,861.44
2023-02-03T07:52:42.629Z,810.24
2023-02-03T07:53:42.774Z,721.28
2023-02-03T07:54:42.874Z,717.44
2023-02-03T07:55:43.037Z,718.08
2023-02-03T07:56:43.142Z,718.08
2023-02-03T07:57:43.280Z,652.16
2023-02-03T07:58:43.378Z,655.04
2023-02-03T07:59:43.501Z,700.16
2023-02-03T08:00:43.659Z,691.2
2023-02-03T08:01:43.812Z,681.6
2023-02-03T08:02:43.905Z,676.48
2023-02-03T08:03:44.067Z,726.4
2023-02-03T08:04:44.169Z,750.08
2023-02-03T08:05:44.285Z,688
2023-02-03T08:06:44.412Z,825.6
2023-02-03T08:07:44.540Z,833.28
2023-02-03T08:08:44.639Z,952.32
2023-02-03T08:09:44.794Z,978.56
2023-02-03T08:10:44.895Z,1001.6
2023-02-03T08:11:44.998Z,1015.04
2023-02-03T08:12:45.409Z,1133.44
2023-02-03T08:13:45.245Z,1128.32
2023-02-03T08:14:45.403Z,1164.16
2023-02-03T08:15:45.599Z,1153.28
2023-02-03T08:16:45.663Z,1138.56
2023-02-03T08:17:45.810Z,1101.44
2023-02-03T08:18:45.973Z,1023.36
2023-02-03T08:19:46.058Z,1068.16
2023-02-03T08:20:46.158Z,1044.48
2023-02-03T08:21:46.304Z,1148.16
2023-02-03T08:22:46.406Z,1089.28
2023-02-03T08:23:46.567Z,1208.32
2023-02-03T08:24:46.660Z,1381.12
2023-02-03T08:25:46.772Z,1399.04
2023-02-03T08:26:46.913Z,1142.4
2023-02-03T08:27:47.092Z,928
2023-02-03T08:28:47.213Z,1061.12
2023-02-03T08:29:47.336Z,1055.36
2023-02-03T08:30:47.466Z,1106.56
2023-02-03T08:31:47.791Z,1068.16
2023-02-03T08:32:47.729Z,1138.56
2023-02-03T08:33:47.891Z,1105.28
2023-02-03T08:34:48.016Z,1107.2
2023-02-03T08:35:48.083Z,1128.32
2023-02-03T08:36:48.200Z,1177.6
2023-02-03T08:37:48.290Z,1193.6
2023-02-03T08:38:48.445Z,1254.4
2023-02-03T08:39:48.605Z,1241.6
2023-02-03T08:40:48.685Z,1200
2023-02-03T08:41:48.834Z,1397.76
2023-02-03T08:42:48.995Z,1312
2023-02-03T08:43:49.083Z,1331.2
2023-02-03T08:44:49.193Z,1409.28
2023-02-03T08:45:49.392Z,1405.44
2023-02-03T08:46:49.452Z,1464.32
2023-02-03T08:47:49.596Z,1346.56
2023-02-03T08:48:49.701Z,1374.72
2023-02-03T08:49:49.786Z,1468.16
2023-02-03T08:50:49.892Z,1395.2
2023-02-03T08:51:50.044Z,1459.2
2023-02-03T08:52:50.142Z,1602.56
2023-02-03T08:53:50.297Z,1692.16
2023-02-03T08:54:50.444Z,1728
2023-02-03T08:55:50.629Z,1812.48
2023-02-03T08:56:50.707Z,1606.4
2023-02-03T08:57:50.863Z,1504
2023-02-03T08:58:51.012Z,1507.84
2023-02-03T08:59:51.119Z,1523.2
2023-02-03T09:00:51.232Z,1493.76
2023-02-03T09:01:51.363Z,1500.16
2023-02-03T09:02:51.470Z,1429.76
2023-02-03T09:03:51.567Z,1349.12
2023-02-03T09:04:51.705Z,1271.04
2023-02-03T09:05:51.764Z,1326.08
2023-02-03T09:06:51.859Z,1290.24
2023-02-03T09:07:52.014Z,1291.52
2023-02-03T09:08:52.169Z,1377.28
2023-02-03T09:09:52.324Z,1342.72
2023-02-03T09:10:52.435Z,1360.64
2023-02-03T09:11:52.583Z,1376
2023-02-03T09:12:52.689Z,1331.2
2023-02-03T09:13:52.781Z,1323.52
2023-02-03T09:14:52.892Z,1409.28
2023-02-03T09:15:52.991Z,1483.52
2023-02-03T09:16:53.160Z,1455.36
2023-02-03T09:17:53.245Z,1440
2023-02-03T09:18:53.339Z,1390.08
2023-02-03T09:19:53.578Z,1438.72
2023-02-03T09:20:53.589Z,1446.4
2023-02-03T09:21:53.746Z,1484.8
2023-02-03T09:22:53.893Z,1559.04
2023-02-03T09:23:54.067Z,1530.88
2023-02-03T09:24:54.207Z,1524.48
2023-02-03T09:25:54.351Z,1606.4
2023-02-03T09:26:54.498Z,1614.08
2023-02-03T09:27:54.656Z,1715.2
2023-02-03T09:28:54.758Z,1918.72
2023-02-03T09:29:54.858Z,2050.56
2023-02-03T09:30:55.065Z,1962.24
2023-02-03T09:31:55.269Z,1911.04
2023-02-03T09:32:55.310Z,1889.28
2023-02-03T09:33:55.432Z,1729.28
2023-02-03T09:34:55.594Z,1684.48
2023-02-03T09:35:55.718Z,1675.52
2023-02-03T09:36:55.826Z,1739.52
2023-02-03T09:37:55.914Z,1753.6
2023-02-03T09:38:56.030Z,1664
2023-02-03T09:39:56.123Z,1580.8
2023-02-03T09:41:09.501Z,1612.8
2023-02-03T09:41:56.376Z,1802.24
2023-02-03T09:42:56.521Z,1920
2023-02-03T09:43:56.630Z,1975.04
2023-02-03T09:44:56.775Z,2003.2
2023-02-03T09:45:56.941Z,1966.08
2023-02-03T09:46:57.029Z,1822.72
2023-02-03T09:47:57.121Z,1726.72
2023-02-03T09:48:57.233Z,1683.2
2023-02-03T09:49:57.391Z,1720.32
2023-02-03T09:50:57.503Z,1671.68
2023-02-03T09:51:57.585Z,1839.36
2023-02-03T09:52:57.731Z,1886.72
2023-02-03T09:53:57.851Z,2000.64
2023-02-03T09:54:57.940Z,1977.6
2023-02-03T09:55:58.049Z,1946.88
2023-02-03T09:56:58.200Z,1800.96
2023-02-03T09:57:58.301Z,1596.16
2023-02-03T09:58:58.440Z,1612.8
2023-02-03T09:59:58.563Z,1606.4
2023-02-03T10:00:58.701Z,1634.56
2023-02-03T10:01:58.738Z,1667.84
2023-02-03T10:02:58.909Z,1701.12
2023-02-03T10:03:58.992Z,1483.52
2023-02-03T10:04:59.166Z,1478.4
2023-02-03T10:05:59.242Z,1463.04
2023-02-03T10:06:59.349Z,1521.92
2023-02-03T10:07:59.448Z,1605.12
2023-02-03T10:08:59.608Z,1635.84
2023-02-03T10:09:59.707Z,1701.12
2023-02-03T10:10:59.807Z,1761.28
2023-02-03T10:11:59.964Z,1798.4
2023-02-03T10:13:00.080Z,1792
2023-02-03T10:14:00.215Z,1847.04
2023-02-03T10:15:00.324Z,1900.8
2023-02-03T10:16:00.428Z,1980.16
2023-02-03T10:17:00.758Z,1972.48
2023-02-03T10:18:00.673Z,2026.24
2023-02-03T10:19:02.601Z,2120.96
2023-02-03T10:20:00.881Z,1955.84
2023-02-03T10:21:00.976Z,1802.24
2023-02-03T10:22:01.087Z,1935.36
2023-02-03T10:23:01.236Z,1788.16
2023-02-03T10:24:01.333Z,1818.88
2023-02-03T10:25:01.508Z,1898.24
2023-02-03T10:26:01.586Z,2053.12
2023-02-03T10:27:01.743Z,1990.4
2023-02-03T10:28:01.847Z,2209.28
2023-02-03T10:29:01.986Z,2305.28
2023-02-03T10:30:02.107Z,1962.24
2023-02-03T10:31:02.301Z,2007.04
2023-02-03T10:32:02.541Z,2365.44
2023-02-03T10:33:02.449Z,2385.92
2023-02-03T10:34:02.598Z,2451.2
2023-02-03T10:35:02.809Z,2113.28
2023-02-03T10:36:03.007Z,2205.44
2023-02-03T10:37:03.048Z,2140.16
2023-02-03T10:38:03.210Z,2307.84
2023-02-03T10:39:03.306Z,2440.96
2023-02-03T10:40:03.452Z,2382.08
2023-02-03T10:41:03.613Z,2097.92
2023-02-03T10:42:03.661Z,2284.8
2023-02-03T10:43:03.808Z,2100.48
2023-02-03T10:44:03.974Z,2211.84
2023-02-03T10:45:04.064Z,2315.52
2023-02-03T10:46:04.294Z,2259.2
2023-02-03T10:47:04.314Z,2191.36
2023-02-03T10:48:04.470Z,2151.68
2023-02-03T10:49:04.619Z,2064.64
2023-02-03T10:50:04.789Z,1973.76
2023-02-03T10:51:04.924Z,2210.56
2023-02-03T10:52:05.133Z,2538.24
2023-02-03T10:53:05.175Z,2501.12
2023-02-03T10:54:05.337Z,2275.84
2023-02-03T10:55:05.476Z,2584.32
2023-02-03T10:56:05.581Z,2547.2
2023-02-03T10:57:05.703Z,2355.2
2023-02-03T10:58:05.771Z,2336
2023-02-03T10:59:05.923Z,2145.28
2023-02-03T11:00:06.026Z,2155.52
2023-02-03T11:01:06.256Z,2260.48
2023-02-03T11:02:06.322Z,2304
2023-02-03T11:03:06.423Z,2369.28
2023-02-03T11:04:06.581Z,2314.24
2023-02-03T11:05:06.740Z,2506.24
2023-02-03T11:06:06.901Z,2464
2023-02-03T11:07:06.990Z,2423.04
2023-02-03T11:08:07.093Z,2579.2
2023-02-03T11:09:07.316Z,2629.12
2023-02-03T11:10:07.354Z,2113.28
2023-02-03T11:11:07.453Z,2100.48
2023-02-03T11:12:07.609Z,2214.4
2023-02-03T11:13:07.704Z,1829.12
2023-02-03T11:14:07.812Z,1793.28
2023-02-03T11:15:07.902Z,1868.8
2023-02-03T11:16:08.153Z,1664
2023-02-03T11:17:08.244Z,1477.12
2023-02-03T11:18:08.364Z,1450.24
2023-02-03T11:19:08.507Z,1328.64
2023-02-03T11:20:08.615Z,1376
2023-02-03T11:21:08.712Z,1443.84
2023-02-03T11:22:08.876Z,1268.48
2023-02-03T11:23:08.967Z,1293.44
2023-02-03T11:24:09.064Z,1178.24
2023-02-03T11:25:09.217Z,1327.36
2023-02-03T11:26:09.382Z,1235.2
2023-02-03T11:27:09.472Z,1306.24
2023-02-03T11:28:09.668Z,1404.16
2023-02-03T11:29:09.679Z,1547.52
2023-02-03T11:30:09.830Z,1582.08
2023-02-03T11:31:10.006Z,1926.4
2023-02-03T11:32:10.100Z,2173.44
2023-02-03T11:33:10.167Z,1939.2
2023-02-03T11:34:10.235Z,1836.8
2023-02-03T11:35:10.349Z,1952
2023-02-03T11:36:10.440Z,2145.28
2023-02-03T11:37:10.542Z,2206.72
2023-02-03T11:38:10.696Z,2238.72
2023-02-03T11:39:10.853Z,1960.96
2023-02-03T11:40:10.962Z,2344.96
2023-02-03T11:41:11.046Z,2014.72
2023-02-03T11:42:11.195Z,1927.68
2023-02-03T11:43:11.298Z,2062.08
2023-02-03T11:44:11.399Z,2019.84
2023-02-03T11:45:11.547Z,1903.36
2023-02-03T11:46:11.777Z,2117.12
2023-02-03T11:47:11.893Z,2417.92
2023-02-03T11:48:12.005Z,2510.08
2023-02-03T11:49:12.178Z,2913.28
2023-02-03T11:50:12.330Z,2574.08
2023-02-03T11:51:12.476Z,2448.64
2023-02-03T11:52:12.602Z,2167.04
2023-02-03T11:53:12.801Z,2713.6
2023-02-03T11:54:12.917Z,2444.8
2023-02-03T11:55:13.036Z,2522.88
2023-02-03T11:56:13.148Z,3041.28
2023-02-03T11:57:13.323Z,3118.08
2023-02-03T11:58:13.415Z,2535.68
2023-02-03T11:59:13.514Z,2557.44
2023-02-03T12:00:13.667Z,3246.08
2023-02-03T12:01:13.770Z,2654.72
2023-02-03T12:02:13.883Z,2877.44
2023-02-03T12:03:14.037Z,2426.88
2023-02-03T12:04:14.140Z,2380.8
2023-02-03T12:05:14.269Z,2675.2
2023-02-03T12:06:14.430Z,2581.76
2023-02-03T12:07:14.583Z,2880
2023-02-03T12:08:14.689Z,2785.28
2023-02-03T12:09:14.828Z,3586.56
2023-02-03T12:10:15.001Z,3105.28
2023-02-03T12:11:15.139Z,2805.76
2023-02-03T12:12:15.236Z,2990.08
2023-02-03T12:13:15.336Z,2515.2
2023-02-03T12:14:15.490Z,2618.88
2023-02-03T12:15:15.590Z,2739.2
2023-02-03T12:16:15.789Z,2062.08
2023-02-03T12:17:15.843Z,2255.36
2023-02-03T12:18:15.998Z,2657.28
2023-02-03T12:19:16.150Z,2905.6
2023-02-03T12:20:16.351Z,2854.4
2023-02-03T12:21:16.355Z,3005.44
2023-02-03T12:22:16.450Z,3281.92
2023-02-03T12:23:16.555Z,3781.12
2023-02-03T12:24:16.643Z,3601.92
2023-02-03T12:25:16.750Z,3896.32
2023-02-03T12:26:16.912Z,3143.68
2023-02-03T12:27:17.050Z,3020.8
2023-02-03T12:28:31.308Z,2880
2023-02-03T12:29:17.302Z,2617.6
2023-02-03T12:30:17.491Z,2680.32
2023-02-03T12:31:17.707Z,2296.32
2023-02-03T12:32:17.663Z,2721.28
2023-02-03T12:33:17.815Z,2859.52
2023-02-03T12:34:17.919Z,2156.8
2023-02-03T12:35:18.012Z,2455.04
2023-02-03T12:36:18.158Z,2376.96
2023-02-03T12:37:18.264Z,2245.12
2023-02-03T12:38:18.360Z,1998.08
2023-02-03T12:39:18.467Z,2094.08
2023-02-03T12:40:18.621Z,2273.28
2023-02-03T12:41:18.772Z,1998.08
2023-02-03T12:42:18.971Z,1879.04
2023-02-03T12:44:19.575Z,2053.12
2023-02-03T12:45:17.929Z,2478.08
2023-02-03T12:46:18.159Z,2731.52
2023-02-03T12:47:18.210Z,2880
2023-02-03T12:48:18.375Z,2752
2023-02-03T12:49:18.573Z,2609.92
2023-02-03T12:50:18.683Z,3315.2
2023-02-03T12:51:18.819Z,3571.2
2023-02-03T12:52:18.967Z,3801.6
2023-02-03T12:53:19.123Z,3338.24
2023-02-03T12:54:19.268Z,3289.6